sensor_id;sensor_type;location;lat;lon;timestamp;temperature;humidity
58519;DHT22;44310;48.106;12.008;2023-06-22T00:00:11;22.10;92.50
58519;DHT22;44310;48.106;12.008;2023-06-22T00:02:39;22.10;92.60
58519;DHT22;44310;48.106;12.008;2023-06-22T00:05:07;22.10;92.70
58519;DHT22;44310;48.106;12.008;2023-06-22T00:07:34;22.10;92.70
58519;DHT22;44310;48.106;12.008;2023-06-22T00:10:01;22.10;92.60
58519;DHT22;44310;48.106;12.008;2023-06-22T00:12:28;22.10;92.60
58519;DHT22;44310;48.106;12.008;2023-06-22T00:14:55;22.10;92.60
58519;DHT22;44310;48.106;12.008;2023-06-22T00:17:22;22.10;92.60
58519;DHT22;44310;48.106;12.008;2023-06-22T00:19:50;22.10;92.60
58519;DHT22;44310;48.106;12.008;2023-06-22T00:22:21;22.10;92.60
58519;DHT22;44310;48.106;12.008;2023-06-22T00:24:56;22.10;92.60
58519;DHT22;44310;48.106;12.008;2023-06-22T00:27:23;22.00;92.60
58519;DHT22;44310;48.106;12.008;2023-06-22T00:29:50;22.10;92.60
58519;DHT22;44310;48.106;12.008;2023-06-22T00:32:17;22.10;92.60
58519;DHT22;44310;48.106;12.008;2023-06-22T00:34:45;22.10;92.60
58519;DHT22;44310;48.106;12.008;2023-06-22T00:37:12;22.20;92.50
58519;DHT22;44310;48.106;12.008;2023-06-22T00:39:40;22.10;92.50
58519;DHT22;44310;48.106;12.008;2023-06-22T00:42:07;22.00;92.50
58519;DHT22;44310;48.106;12.008;2023-06-22T00:44:35;22.00;92.50
58519;DHT22;44310;48.106;12.008;2023-06-22T00:47:03;22.10;92.50
58519;DHT22;44310;48.106;12.008;2023-06-22T00:49:30;22.00;92.50
58519;DHT22;44310;48.106;12.008;2023-06-22T00:51:57;22.00;92.50
58519;DHT22;44310;48.106;12.008;2023-06-22T00:54:25;22.00;92.40
58519;DHT22;44310;48.106;12.008;2023-06-22T00:56:53;22.00;92.40
58519;DHT22;44310;48.106;12.008;2023-06-22T00:59:24;22.00;92.40
58519;DHT22;44310;48.106;12.008;2023-06-22T01:01:53;22.00;92.40
58519;DHT22;44310;48.106;12.008;2023-06-22T01:04:23;22.50;92.50
58519;DHT22;44310;48.106;12.008;2023-06-22T01:09:35;22.00;92.60
58519;DHT22;44310;48.106;12.008;2023-06-22T01:12:07;22.10;92.90
58519;DHT22;44310;48.106;12.008;2023-06-22T01:14:47;22.10;93.00
58519;DHT22;44310;48.106;12.008;2023-06-22T01:17:17;22.10;92.90
58519;DHT22;44310;48.106;12.008;2023-06-22T01:19:49;22.10;93.00
58519;DHT22;44310;48.106;12.008;2023-06-22T01:22:25;22.10;93.00
58519;DHT22;44310;48.106;12.008;2023-06-22T01:30:09;22.10;92.80
58519;DHT22;44310;48.106;12.008;2023-06-22T01:32:38;22.10;92.70
58519;DHT22;44310;48.106;12.008;2023-06-22T01:35:08;22.10;92.70
58519;DHT22;44310;48.106;12.008;2023-06-22T01:37:36;22.10;92.70
58519;DHT22;44310;48.106;12.008;2023-06-22T01:40:05;22.10;93.00
58519;DHT22;44310;48.106;12.008;2023-06-22T01:42:36;22.10;92.60
58519;DHT22;44310;48.106;12.008;2023-06-22T01:45:04;22.10;92.60
58519;DHT22;44310;48.106;12.008;2023-06-22T01:47:32;22.10;92.50
58519;DHT22;44310;48.106;12.008;2023-06-22T01:50:00;22.10;92.50
58519;DHT22;44310;48.106;12.008;2023-06-22T01:52:28;22.10;92.40
58519;DHT22;44310;48.106;12.008;2023-06-22T01:54:55;22.10;92.40
58519;DHT22;44310;48.106;12.008;2023-06-22T01:57:24;22.00;92.30
58519;DHT22;44310;48.106;12.008;2023-06-22T01:59:59;22.00;92.40
58519;DHT22;44310;48.106;12.008;2023-06-22T02:02:33;22.00;92.30
58519;DHT22;44310;48.106;12.008;2023-06-22T02:05:06;22.00;92.30
58519;DHT22;44310;48.106;12.008;2023-06-22T02:07:39;22.00;92.20
58519;DHT22;44310;48.106;12.008;2023-06-22T02:10:09;21.70;92.10
58519;DHT22;44310;48.106;12.008;2023-06-22T02:12:40;22.00;92.30
58519;DHT22;44310;48.106;12.008;2023-06-22T02:15:10;22.20;92.90
58519;DHT22;44310;48.106;12.008;2023-06-22T02:17:39;22.10;93.00
58519;DHT22;44310;48.106;12.008;2023-06-22T02:20:13;22.10;93.10
58519;DHT22;44310;48.106;12.008;2023-06-22T02:22:41;22.20;93.20
58519;DHT22;44310;48.106;12.008;2023-06-22T02:25:08;22.10;93.20
58519;DHT22;44310;48.106;12.008;2023-06-22T02:27:35;22.10;93.10
58519;DHT22;44310;48.106;12.008;2023-06-22T02:30:03;22.20;93.20
58519;DHT22;44310;48.106;12.008;2023-06-22T02:32:30;22.10;93.20
58519;DHT22;44310;48.106;12.008;2023-06-22T02:34:57;22.10;93.20
58519;DHT22;44310;48.106;12.008;2023-06-22T02:37:24;22.10;93.00
58519;DHT22;44310;48.106;12.008;2023-06-22T02:39:52;22.00;93.00
58519;DHT22;44310;48.106;12.008;2023-06-22T02:42:19;22.00;93.00
58519;DHT22;44310;48.106;12.008;2023-06-22T02:44:48;22.00;93.00
58519;DHT22;44310;48.106;12.008;2023-06-22T02:47:15;22.00;93.00
58519;DHT22;44310;48.106;12.008;2023-06-22T02:49:42;21.90;92.90
58519;DHT22;44310;48.106;12.008;2023-06-22T02:52:11;21.70;92.90
58519;DHT22;44310;48.106;12.008;2023-06-22T02:54:39;22.00;93.00
58519;DHT22;44310;48.106;12.008;2023-06-22T02:57:06;21.50;92.90
58519;DHT22;44310;48.106;12.008;2023-06-22T02:59:33;22.00;93.10
58519;DHT22;44310;48.106;12.008;2023-06-22T03:02:00;22.00;93.10
58519;DHT22;44310;48.106;12.008;2023-06-22T03:04:28;22.00;93.10
58519;DHT22;44310;48.106;12.008;2023-06-22T03:06:55;22.00;93.10
58519;DHT22;44310;48.106;12.008;2023-06-22T03:09:22;22.00;93.20
58519;DHT22;44310;48.106;12.008;2023-06-22T03:11:49;22.00;93.50
58519;DHT22;44310;48.106;12.008;2023-06-22T03:14:16;22.10;93.70
58519;DHT22;44310;48.106;12.008;2023-06-22T03:16:43;22.10;93.70
58519;DHT22;44310;48.106;12.008;2023-06-22T03:19:11;22.20;93.80
58519;DHT22;44310;48.106;12.008;2023-06-22T03:21:38;22.10;93.70
58519;DHT22;44310;48.106;12.008;2023-06-22T03:24:06;22.10;93.80
58519;DHT22;44310;48.106;12.008;2023-06-22T03:26:34;22.20;93.90
58519;DHT22;44310;48.106;12.008;2023-06-22T03:29:01;22.10;93.60
58519;DHT22;44310;48.106;12.008;2023-06-22T03:31:28;22.30;93.70
58519;DHT22;44310;48.106;12.008;2023-06-22T03:33:56;22.10;93.60
58519;DHT22;44310;48.106;12.008;2023-06-22T03:36:23;22.10;93.50
58519;DHT22;44310;48.106;12.008;2023-06-22T03:38:51;21.60;93.30
58519;DHT22;44310;48.106;12.008;2023-06-22T03:41:18;22.10;93.40
58519;DHT22;44310;48.106;12.008;2023-06-22T03:43:46;22.00;93.30
58519;DHT22;44310;48.106;12.008;2023-06-22T03:46:13;22.00;93.30
58519;DHT22;44310;48.106;12.008;2023-06-22T03:48:40;22.00;93.20
58519;DHT22;44310;48.106;12.008;2023-06-22T03:51:07;22.00;93.10
58519;DHT22;44310;48.106;12.008;2023-06-22T03:53:34;22.00;93.00
58519;DHT22;44310;48.106;12.008;2023-06-22T03:56:01;21.90;92.90
58519;DHT22;44310;48.106;12.008;2023-06-22T03:58:29;21.90;92.80
58519;DHT22;44310;48.106;12.008;2023-06-22T04:00:59;21.90;92.70
58519;DHT22;44310;48.106;12.008;2023-06-22T04:03:27;21.90;92.60
58519;DHT22;44310;48.106;12.008;2023-06-22T04:05:54;22.00;92.60
58519;DHT22;44310;48.106;12.008;2023-06-22T04:08:21;21.90;92.50
58519;DHT22;44310;48.106;12.008;2023-06-22T04:10:48;21.90;92.40
58519;DHT22;44310;48.106;12.008;2023-06-22T04:13:16;22.00;92.40
58519;DHT22;44310;48.106;12.008;2023-06-22T04:15:43;21.90;92.40
58519;DHT22;44310;48.106;12.008;2023-06-22T04:18:10;22.00;92.40
58519;DHT22;44310;48.106;12.008;2023-06-22T04:20:37;22.00;92.50
58519;DHT22;44310;48.106;12.008;2023-06-22T04:23:05;21.90;92.70
58519;DHT22;44310;48.106;12.008;2023-06-22T04:25:32;22.00;92.80
58519;DHT22;44310;48.106;12.008;2023-06-22T04:27:59;22.00;92.80
58519;DHT22;44310;48.106;12.008;2023-06-22T04:30:26;22.00;92.70
58519;DHT22;44310;48.106;12.008;2023-06-22T04:32:54;22.00;92.60
58519;DHT22;44310;48.106;12.008;2023-06-22T04:35:25;22.00;92.60
58519;DHT22;44310;48.106;12.008;2023-06-22T04:37:53;22.00;92.60
58519;DHT22;44310;48.106;12.008;2023-06-22T04:40:23;22.00;92.50
58519;DHT22;44310;48.106;12.008;2023-06-22T04:42:50;22.00;92.50
58519;DHT22;44310;48.106;12.008;2023-06-22T04:45:21;22.00;92.50
58519;DHT22;44310;48.106;12.008;2023-06-22T04:47:49;22.10;92.50
58519;DHT22;44310;48.106;12.008;2023-06-22T04:50:16;22.00;92.50
58519;DHT22;44310;48.106;12.008;2023-06-22T04:52:44;22.00;92.50
58519;DHT22;44310;48.106;12.008;2023-06-22T04:55:12;22.10;92.70
58519;DHT22;44310;48.106;12.008;2023-06-22T04:57:41;21.50;92.50
58519;DHT22;44310;48.106;12.008;2023-06-22T05:00:12;22.10;92.60
58519;DHT22;44310;48.106;12.008;2023-06-22T05:02:40;22.10;92.60
58519;DHT22;44310;48.106;12.008;2023-06-22T05:05:08;22.10;92.70
58519;DHT22;44310;48.106;12.008;2023-06-22T05:07:36;22.00;92.60
58519;DHT22;44310;48.106;12.008;2023-06-22T05:10:04;22.10;92.70
58519;DHT22;44310;48.106;12.008;2023-06-22T05:12:32;22.10;92.60
58519;DHT22;44310;48.106;12.008;2023-06-22T05:14:59;22.20;92.60
58519;DHT22;44310;48.106;12.008;2023-06-22T05:17:26;22.00;92.50
58519;DHT22;44310;48.106;12.008;2023-06-22T05:19:53;22.10;92.60
58519;DHT22;44310;48.106;12.008;2023-06-22T05:22:21;22.10;92.60
58519;DHT22;44310;48.106;12.008;2023-06-22T05:24:49;22.10;92.60
58519;DHT22;44310;48.106;12.008;2023-06-22T05:27:16;22.10;92.60
58519;DHT22;44310;48.106;12.008;2023-06-22T05:29:43;22.10;92.70
58519;DHT22;44310;48.106;12.008;2023-06-22T05:32:10;22.10;92.70
58519;DHT22;44310;48.106;12.008;2023-06-22T05:34:38;22.00;92.60
58519;DHT22;44310;48.106;12.008;2023-06-22T05:37:06;22.10;92.70
58519;DHT22;44310;48.106;12.008;2023-06-22T05:39:33;22.10;92.70
58519;DHT22;44310;48.106;12.008;2023-06-22T05:42:00;22.10;92.70
58519;DHT22;44310;48.106;12.008;2023-06-22T05:44:27;22.10;92.60
58519;DHT22;44310;48.106;12.008;2023-06-22T05:46:54;22.10;92.60
58519;DHT22;44310;48.106;12.008;2023-06-22T05:49:21;22.10;92.60
58519;DHT22;44310;48.106;12.008;2023-06-22T05:51:50;22.10;92.70
58519;DHT22;44310;48.106;12.008;2023-06-22T05:54:17;22.00;92.70
58519;DHT22;44310;48.106;12.008;2023-06-22T05:56:45;22.10;92.70
58519;DHT22;44310;48.106;12.008;2023-06-22T05:59:12;22.00;92.70
58519;DHT22;44310;48.106;12.008;2023-06-22T06:01:39;22.10;92.90
58519;DHT22;44310;48.106;12.008;2023-06-22T06:04:07;21.90;93.00
58519;DHT22;44310;48.106;12.008;2023-06-22T06:06:35;22.10;92.70
58519;DHT22;44310;48.106;12.008;2023-06-22T06:09:04;22.10;92.90
58519;DHT22;44310;48.106;12.008;2023-06-22T06:11:31;22.00;93.00
58519;DHT22;44310;48.106;12.008;2023-06-22T06:13:59;22.00;92.50
58519;DHT22;44310;48.106;12.008;2023-06-22T06:16:26;22.00;93.00
58519;DHT22;44310;48.106;12.008;2023-06-22T06:18:53;22.00;93.10
58519;DHT22;44310;48.106;12.008;2023-06-22T06:21:22;21.90;92.50
58519;DHT22;44310;48.106;12.008;2023-06-22T06:23:50;22.00;92.90
58519;DHT22;44310;48.106;12.008;2023-06-22T06:26:17;22.00;93.20
58519;DHT22;44310;48.106;12.008;2023-06-22T06:28:44;22.00;93.20
58519;DHT22;44310;48.106;12.008;2023-06-22T06:31:12;22.00;93.10
58519;DHT22;44310;48.106;12.008;2023-06-22T06:33:44;22.00;93.10
58519;DHT22;44310;48.106;12.008;2023-06-22T06:36:11;21.80;93.20
58519;DHT22;44310;48.106;12.008;2023-06-22T06:38:38;22.00;93.30
58519;DHT22;44310;48.106;12.008;2023-06-22T06:41:05;22.00;93.20
58519;DHT22;44310;48.106;12.008;2023-06-22T06:43:32;22.00;93.10
58519;DHT22;44310;48.106;12.008;2023-06-22T06:45:59;22.00;92.90
58519;DHT22;44310;48.106;12.008;2023-06-22T06:48:27;22.00;93.10
58519;DHT22;44310;48.106;12.008;2023-06-22T06:50:54;22.00;93.30
58519;DHT22;44310;48.106;12.008;2023-06-22T06:53:21;22.00;93.30
58519;DHT22;44310;48.106;12.008;2023-06-22T06:55:49;22.00;93.40
58519;DHT22;44310;48.106;12.008;2023-06-22T06:58:16;22.00;93.40
58519;DHT22;44310;48.106;12.008;2023-06-22T07:00:45;22.00;93.30
58519;DHT22;44310;48.106;12.008;2023-06-22T07:03:12;22.00;93.40
58519;DHT22;44310;48.106;12.008;2023-06-22T07:05:40;22.00;93.30
58519;DHT22;44310;48.106;12.008;2023-06-22T07:08:08;22.00;93.30
58519;DHT22;44310;48.106;12.008;2023-06-22T07:10:36;22.00;93.10
58519;DHT22;44310;48.106;12.008;2023-06-22T07:13:03;22.00;93.10
58519;DHT22;44310;48.106;12.008;2023-06-22T07:15:30;22.00;93.10
58519;DHT22;44310;48.106;12.008;2023-06-22T07:17:57;22.00;93.10
58519;DHT22;44310;48.106;12.008;2023-06-22T07:20:24;22.00;93.10
58519;DHT22;44310;48.106;12.008;2023-06-22T07:22:51;21.90;93.00
58519;DHT22;44310;48.106;12.008;2023-06-22T07:25:19;21.90;93.00
58519;DHT22;44310;48.106;12.008;2023-06-22T07:28:00;21.90;93.00
58519;DHT22;44310;48.106;12.008;2023-06-22T07:30:29;21.90;93.00
58519;DHT22;44310;48.106;12.008;2023-06-22T07:32:57;21.90;93.00
58519;DHT22;44310;48.106;12.008;2023-06-22T07:35:25;21.90;93.00
58519;DHT22;44310;48.106;12.008;2023-06-22T07:37:52;21.90;93.00
58519;DHT22;44310;48.106;12.008;2023-06-22T07:40:19;21.90;93.00
58519;DHT22;44310;48.106;12.008;2023-06-22T07:42:46;22.00;93.00
58519;DHT22;44310;48.106;12.008;2023-06-22T07:45:15;21.80;92.60
58519;DHT22;44310;48.106;12.008;2023-06-22T07:47:42;21.90;92.90
58519;DHT22;44310;48.106;12.008;2023-06-22T07:50:10;21.90;92.60
58519;DHT22;44310;48.106;12.008;2023-06-22T07:52:37;21.90;92.90
58519;DHT22;44310;48.106;12.008;2023-06-22T07:55:04;22.00;93.10
58519;DHT22;44310;48.106;12.008;2023-06-22T07:57:32;22.00;92.90
58519;DHT22;44310;48.106;12.008;2023-06-22T08:00:02;22.00;93.00
58519;DHT22;44310;48.106;12.008;2023-06-22T08:02:31;22.00;92.70
58519;DHT22;44310;48.106;12.008;2023-06-22T08:04:58;22.00;93.20
58519;DHT22;44310;48.106;12.008;2023-06-22T08:07:41;22.10;93.20
58519;DHT22;44310;48.106;12.008;2023-06-22T08:10:13;22.10;93.20
58519;DHT22;44310;48.106;12.008;2023-06-22T08:12:41;22.20;93.20
58519;DHT22;44310;48.106;12.008;2023-06-22T08:15:08;22.20;93.40
58519;DHT22;44310;48.106;12.008;2023-06-22T08:17:39;22.30;93.30
58519;DHT22;44310;48.106;12.008;2023-06-22T08:20:08;22.30;93.40
58519;DHT22;44310;48.106;12.008;2023-06-22T08:22:40;22.30;93.10
58519;DHT22;44310;48.106;12.008;2023-06-22T08:25:08;22.30;93.20
58519;DHT22;44310;48.106;12.008;2023-06-22T08:27:35;22.30;93.40
58519;DHT22;44310;48.106;12.008;2023-06-22T08:30:03;22.30;93.60
58519;DHT22;44310;48.106;12.008;2023-06-22T08:32:31;22.40;94.20
58519;DHT22;44310;48.106;12.008;2023-06-22T08:35:00;22.40;94.40
58519;DHT22;44310;48.106;12.008;2023-06-22T08:37:28;22.50;94.60
58519;DHT22;44310;48.106;12.008;2023-06-22T08:39:59;22.50;94.60
58519;DHT22;44310;48.106;12.008;2023-06-22T08:42:28;22.50;94.70
58519;DHT22;44310;48.106;12.008;2023-06-22T08:44:55;22.50;94.80
58519;DHT22;44310;48.106;12.008;2023-06-22T08:47:22;22.50;95.00
58519;DHT22;44310;48.106;12.008;2023-06-22T08:49:50;22.60;95.30
58519;DHT22;44310;48.106;12.008;2023-06-22T08:52:18;22.60;95.50
58519;DHT22;44310;48.106;12.008;2023-06-22T08:54:47;22.60;95.60
58519;DHT22;44310;48.106;12.008;2023-06-22T08:57:14;22.60;95.80
58519;DHT22;44310;48.106;12.008;2023-06-22T08:59:42;22.60;95.80
58519;DHT22;44310;48.106;12.008;2023-06-22T09:02:09;22.60;96.00
58519;DHT22;44310;48.106;12.008;2023-06-22T09:04:36;22.70;96.20
58519;DHT22;44310;48.106;12.008;2023-06-22T09:07:04;22.60;96.10
58519;DHT22;44310;48.106;12.008;2023-06-22T09:09:31;22.60;96.10
58519;DHT22;44310;48.106;12.008;2023-06-22T09:11:58;22.60;96.10
58519;DHT22;44310;48.106;12.008;2023-06-22T09:14:25;22.60;96.20
58519;DHT22;44310;48.106;12.008;2023-06-22T09:16:53;22.50;96.10
58519;DHT22;44310;48.106;12.008;2023-06-22T09:19:20;22.50;96.30
58519;DHT22;44310;48.106;12.008;2023-06-22T09:21:47;22.60;96.40
58519;DHT22;44310;48.106;12.008;2023-06-22T09:24:14;22.50;96.30
58519;DHT22;44310;48.106;12.008;2023-06-22T09:26:41;22.50;96.30
58519;DHT22;44310;48.106;12.008;2023-06-22T09:29:08;22.50;96.30
58519;DHT22;44310;48.106;12.008;2023-06-22T09:31:36;22.50;96.30
58519;DHT22;44310;48.106;12.008;2023-06-22T09:34:03;22.50;96.40
58519;DHT22;44310;48.106;12.008;2023-06-22T09:36:30;22.60;96.50
58519;DHT22;44310;48.106;12.008;2023-06-22T09:38:57;22.50;96.40
58519;DHT22;44310;48.106;12.008;2023-06-22T09:41:26;22.50;96.40
58519;DHT22;44310;48.106;12.008;2023-06-22T09:43:53;22.50;96.40
58519;DHT22;44310;48.106;12.008;2023-06-22T09:46:23;22.50;96.40
58519;DHT22;44310;48.106;12.008;2023-06-22T09:48:52;22.50;96.50
58519;DHT22;44310;48.106;12.008;2023-06-22T09:51:20;22.50;96.40
58519;DHT22;44310;48.106;12.008;2023-06-22T09:53:48;22.50;96.30
58519;DHT22;44310;48.106;12.008;2023-06-22T09:56:16;22.50;96.30
58519;DHT22;44310;48.106;12.008;2023-06-22T09:58:44;22.50;96.30
58519;DHT22;44310;48.106;12.008;2023-06-22T10:01:11;22.50;96.40
58519;DHT22;44310;48.106;12.008;2023-06-22T10:03:38;22.50;96.50
58519;DHT22;44310;48.106;12.008;2023-06-22T10:06:06;22.50;96.50
58519;DHT22;44310;48.106;12.008;2023-06-22T10:08:33;22.50;96.50
58519;DHT22;44310;48.106;12.008;2023-06-22T10:11:00;22.50;96.50
58519;DHT22;44310;48.106;12.008;2023-06-22T10:13:27;22.90;96.50
58519;DHT22;44310;48.106;12.008;2023-06-22T10:15:55;22.60;96.40
58519;DHT22;44310;48.106;12.008;2023-06-22T10:18:22;22.50;96.40
58519;DHT22;44310;48.106;12.008;2023-06-22T10:20:50;22.50;96.40
58519;DHT22;44310;48.106;12.008;2023-06-22T10:23:19;22.50;96.50
58519;DHT22;44310;48.106;12.008;2023-06-22T10:25:46;22.50;96.40
58519;DHT22;44310;48.106;12.008;2023-06-22T10:28:14;22.40;96.30
58519;DHT22;44310;48.106;12.008;2023-06-22T10:30:41;22.60;96.40
58519;DHT22;44310;48.106;12.008;2023-06-22T10:33:12;22.50;96.30
58519;DHT22;44310;48.106;12.008;2023-06-22T10:35:39;22.50;96.40
58519;DHT22;44310;48.106;12.008;2023-06-22T10:38:06;22.50;96.50
58519;DHT22;44310;48.106;12.008;2023-06-22T10:40:34;22.50;96.50
58519;DHT22;44310;48.106;12.008;2023-06-22T10:43:02;22.60;96.50
58519;DHT22;44310;48.106;12.008;2023-06-22T10:45:29;22.60;96.80
58519;DHT22;44310;48.106;12.008;2023-06-22T10:47:57;22.60;96.50
58519;DHT22;44310;48.106;12.008;2023-06-22T10:50:25;22.50;96.50
58519;DHT22;44310;48.106;12.008;2023-06-22T10:52:52;22.50;96.60
58519;DHT22;44310;48.106;12.008;2023-06-22T10:55:19;22.40;96.60
58519;DHT22;44310;48.106;12.008;2023-06-22T10:57:46;22.60;96.60
58519;DHT22;44310;48.106;12.008;2023-06-22T11:00:15;22.60;96.70
58519;DHT22;44310;48.106;12.008;2023-06-22T11:02:43;22.60;96.70
58519;DHT22;44310;48.106;12.008;2023-06-22T11:05:11;22.60;96.70
58519;DHT22;44310;48.106;12.008;2023-06-22T11:07:42;22.70;96.90
58519;DHT22;44310;48.106;12.008;2023-06-22T11:10:15;22.60;96.80
58519;DHT22;44310;48.106;12.008;2023-06-22T11:12:42;22.60;96.80
58519;DHT22;44310;48.106;12.008;2023-06-22T11:15:09;22.60;97.10
58519;DHT22;44310;48.106;12.008;2023-06-22T11:17:37;22.60;97.00
58519;DHT22;44310;48.106;12.008;2023-06-22T11:20:05;22.60;96.90
58519;DHT22;44310;48.106;12.008;2023-06-22T11:22:38;22.60;96.90
58519;DHT22;44310;48.106;12.008;2023-06-22T11:25:07;22.70;96.90
58519;DHT22;44310;48.106;12.008;2023-06-22T11:27:34;22.60;96.90
58519;DHT22;44310;48.106;12.008;2023-06-22T11:30:01;22.50;96.80
58519;DHT22;44310;48.106;12.008;2023-06-22T11:32:29;22.50;96.90
58519;DHT22;44310;48.106;12.008;2023-06-22T11:34:57;22.50;97.00
58519;DHT22;44310;48.106;12.008;2023-06-22T11:37:24;22.60;97.10
58519;DHT22;44310;48.106;12.008;2023-06-22T11:39:51;22.50;97.00
58519;DHT22;44310;48.106;12.008;2023-06-22T11:42:25;22.50;97.00
58519;DHT22;44310;48.106;12.008;2023-06-22T11:44:52;22.50;97.30
58519;DHT22;44310;48.106;12.008;2023-06-22T11:47:19;22.50;96.90
58519;DHT22;44310;48.106;12.008;2023-06-22T11:49:47;22.60;96.90
58519;DHT22;44310;48.106;12.008;2023-06-22T11:52:14;22.60;96.90
58519;DHT22;44310;48.106;12.008;2023-06-22T11:54:41;22.50;96.90
58519;DHT22;44310;48.106;12.008;2023-06-22T11:57:08;22.50;96.80
58519;DHT22;44310;48.106;12.008;2023-06-22T11:59:35;22.50;96.80
58519;DHT22;44310;48.106;12.008;2023-06-22T12:02:03;22.50;96.80
58519;DHT22;44310;48.106;12.008;2023-06-22T12:04:31;22.50;96.80
58519;DHT22;44310;48.106;12.008;2023-06-22T12:06:58;22.40;96.80
58519;DHT22;44310;48.106;12.008;2023-06-22T12:09:25;22.50;96.80
58519;DHT22;44310;48.106;12.008;2023-06-22T12:11:52;22.50;96.70
58519;DHT22;44310;48.106;12.008;2023-06-22T12:14:19;22.50;96.60
58519;DHT22;44310;48.106;12.008;2023-06-22T12:16:47;22.50;96.70
58519;DHT22;44310;48.106;12.008;2023-06-22T12:19:14;22.50;96.80
58519;DHT22;44310;48.106;12.008;2023-06-22T12:21:41;22.50;96.70
58519;DHT22;44310;48.106;12.008;2023-06-22T12:24:08;22.60;96.70
58519;DHT22;44310;48.106;12.008;2023-06-22T12:26:36;22.60;96.90
58519;DHT22;44310;48.106;12.008;2023-06-22T12:29:03;22.60;97.10
58519;DHT22;44310;48.106;12.008;2023-06-22T12:31:30;22.60;96.90
58519;DHT22;44310;48.106;12.008;2023-06-22T12:33:57;22.60;96.80
58519;DHT22;44310;48.106;12.008;2023-06-22T12:36:24;22.60;96.80
58519;DHT22;44310;48.106;12.008;2023-06-22T12:38:51;22.60;96.80
58519;DHT22;44310;48.106;12.008;2023-06-22T12:41:20;22.60;96.80
58519;DHT22;44310;48.106;12.008;2023-06-22T12:43:47;22.60;96.90
58519;DHT22;44310;48.106;12.008;2023-06-22T12:46:14;22.60;96.90
58519;DHT22;44310;48.106;12.008;2023-06-22T12:48:41;22.70;96.90
58519;DHT22;44310;48.106;12.008;2023-06-22T12:51:09;22.70;96.90
58519;DHT22;44310;48.106;12.008;2023-06-22T12:53:37;22.80;96.90
58519;DHT22;44310;48.106;12.008;2023-06-22T12:56:04;22.60;96.80
58519;DHT22;44310;48.106;12.008;2023-06-22T12:58:31;22.70;96.90
58519;DHT22;44310;48.106;12.008;2023-06-22T13:00:58;22.70;96.90
58519;DHT22;44310;48.106;12.008;2023-06-22T13:03:25;22.70;96.90
58519;DHT22;44310;48.106;12.008;2023-06-22T13:05:54;22.70;96.90
58519;DHT22;44310;48.106;12.008;2023-06-22T13:08:22;22.70;96.90
58519;DHT22;44310;48.106;12.008;2023-06-22T13:11:01;22.70;97.00
58519;DHT22;44310;48.106;12.008;2023-06-22T13:13:28;22.70;96.90
58519;DHT22;44310;48.106;12.008;2023-06-22T13:15:55;22.70;96.90
58519;DHT22;44310;48.106;12.008;2023-06-22T13:18:23;22.80;96.90
58519;DHT22;44310;48.106;12.008;2023-06-22T13:20:50;22.70;96.90
58519;DHT22;44310;48.106;12.008;2023-06-22T13:23:17;22.70;96.80
58519;DHT22;44310;48.106;12.008;2023-06-22T13:25:44;22.70;96.80
58519;DHT22;44310;48.106;12.008;2023-06-22T13:28:11;22.70;96.80
58519;DHT22;44310;48.106;12.008;2023-06-22T13:30:54;22.70;96.70
58519;DHT22;44310;48.106;12.008;2023-06-22T13:33:21;22.50;96.70
58519;DHT22;44310;48.106;12.008;2023-06-22T13:35:48;22.70;96.70
58519;DHT22;44310;48.106;12.008;2023-06-22T13:38:15;22.70;96.60
58519;DHT22;44310;48.106;12.008;2023-06-22T13:40:44;22.70;96.60
58519;DHT22;44310;48.106;12.008;2023-06-22T13:43:11;22.70;96.60
58519;DHT22;44310;48.106;12.008;2023-06-22T13:45:38;22.70;96.60
58519;DHT22;44310;48.106;12.008;2023-06-22T13:48:06;22.80;96.50
58519;DHT22;44310;48.106;12.008;2023-06-22T13:50:33;22.70;96.50
58519;DHT22;44310;48.106;12.008;2023-06-22T13:53:00;22.70;96.40
58519;DHT22;44310;48.106;12.008;2023-06-22T13:55:27;22.70;96.50
58519;DHT22;44310;48.106;12.008;2023-06-22T13:57:54;22.70;96.50
58519;DHT22;44310;48.106;12.008;2023-06-22T14:00:22;22.70;96.50
58519;DHT22;44310;48.106;12.008;2023-06-22T14:02:49;22.70;96.50
58519;DHT22;44310;48.106;12.008;2023-06-22T14:05:16;22.70;96.80
58519;DHT22;44310;48.106;12.008;2023-06-22T14:07:43;22.70;96.50
58519;DHT22;44310;48.106;12.008;2023-06-22T14:10:10;22.70;96.50
58519;DHT22;44310;48.106;12.008;2023-06-22T14:12:38;22.70;96.50
58519;DHT22;44310;48.106;12.008;2023-06-22T14:15:06;22.70;96.60
58519;DHT22;44310;48.106;12.008;2023-06-22T14:17:33;22.70;96.60
58519;DHT22;44310;48.106;12.008;2023-06-22T14:20:00;22.70;96.50
58519;DHT22;44310;48.106;12.008;2023-06-22T14:22:27;22.70;96.50
58519;DHT22;44310;48.106;12.008;2023-06-22T14:24:56;22.80;96.50
58519;DHT22;44310;48.106;12.008;2023-06-22T14:27:24;22.70;96.40
58519;DHT22;44310;48.106;12.008;2023-06-22T14:29:51;22.80;96.40
58519;DHT22;44310;48.106;12.008;2023-06-22T14:32:18;22.80;96.40
58519;DHT22;44310;48.106;12.008;2023-06-22T14:34:46;22.80;96.30
58519;DHT22;44310;48.106;12.008;2023-06-22T14:37:13;22.70;96.30
58519;DHT22;44310;48.106;12.008;2023-06-22T14:39:40;22.80;96.30
58519;DHT22;44310;48.106;12.008;2023-06-22T14:42:08;22.80;96.30
58519;DHT22;44310;48.106;12.008;2023-06-22T14:44:35;22.80;96.30
58519;DHT22;44310;48.106;12.008;2023-06-22T14:47:03;22.70;96.30
58519;DHT22;44310;48.106;12.008;2023-06-22T14:49:30;22.80;96.30
58519;DHT22;44310;48.106;12.008;2023-06-22T14:51:57;22.80;96.30
58519;DHT22;44310;48.106;12.008;2023-06-22T14:54:24;22.80;96.20
58519;DHT22;44310;48.106;12.008;2023-06-22T14:56:52;22.80;96.20
58519;DHT22;44310;48.106;12.008;2023-06-22T14:59:19;22.80;96.20
58519;DHT22;44310;48.106;12.008;2023-06-22T15:01:46;22.80;96.20
58519;DHT22;44310;48.106;12.008;2023-06-22T15:04:15;22.80;96.20
58519;DHT22;44310;48.106;12.008;2023-06-22T15:06:42;22.80;96.20
58519;DHT22;44310;48.106;12.008;2023-06-22T15:09:11;22.80;96.20
58519;DHT22;44310;48.106;12.008;2023-06-22T15:11:38;22.80;96.20
58519;DHT22;44310;48.106;12.008;2023-06-22T15:14:05;22.80;96.10
58519;DHT22;44310;48.106;12.008;2023-06-22T15:16:32;22.70;96.10
58519;DHT22;44310;48.106;12.008;2023-06-22T15:19:00;22.80;96.10
58519;DHT22;44310;48.106;12.008;2023-06-22T15:21:27;22.70;96.10
58519;DHT22;44310;48.106;12.008;2023-06-22T15:23:54;22.80;96.10
58519;DHT22;44310;48.106;12.008;2023-06-22T15:26:21;22.80;96.10